EBCI/CRL METAR and TAF weather

Enter ICAO airport designator
Station Type Date Time Source
EBCI METAR 2020/09/22 20:20 UTC NOAA

EBCI 222020Z 20003KT CAVOK 17/09 Q1008 NOSIG


Station Type Date Time Source
EBCI Decoded METAR 2020/09/22 20:20 UTC NOAA

Charleroi / Gosselies, Belgium (EBCI) 50-28N 004-27E 192M
Sep 22, 2020 - 04:20 PM EDT / 2020.09.22 2020 UTC
Wind: from the SSW (200 degrees) at 3 MPH (3 KT):0
Visibility: greater than 7 mile(s):0
Temperature: 62 F (17 C)
Dew Point: 48 F (9 C)
Relative Humidity: 59%
Pressure (altimeter): 29.77 in. Hg (1008 hPa)
ob: EBCI 222020Z 20003KT CAVOK 17/09 Q1008 NOSIG
cycle: 20

Station Type Date Time Source
EBCI TAF 2020/09/22 18:27 UTC NOAA

TAF EBCI 221702Z 2218/2324 22005KT CAVOK PROB30
TEMPO 2305/2308 BKN010 PROB30
TEMPO 2314/2319 4000 SHRA
TEMPO 2319/2323 3500 RA SHRA BKN012 SCT025CB

Example: see airport list